createdAt,value
2019-02-25T00:01:15.473Z,47.20
2019-02-25T00:03:44.319Z,47.90
2019-02-25T00:06:12.295Z,48.10
2019-02-25T00:08:40.315Z,49.60
2019-02-25T00:11:08.561Z,49.50
2019-02-25T00:13:36.497Z,49.20
2019-02-25T00:16:04.447Z,48.80
2019-02-25T00:18:32.493Z,48.70
2019-02-25T00:21:01.414Z,48.60
2019-02-25T00:23:29.373Z,48.80
2019-02-25T00:25:58.167Z,48.90
2019-02-25T00:28:26.194Z,48.60
2019-02-25T00:30:54.146Z,48.80
2019-02-25T00:33:22.155Z,48.80
2019-02-25T00:35:50.101Z,49.00
2019-02-25T00:38:18.134Z,49.30
2019-02-25T00:40:46.387Z,50.40
2019-02-25T00:43:14.332Z,50.20
2019-02-25T00:45:42.466Z,50.50
2019-02-25T00:48:10.379Z,50.80
2019-02-25T00:50:38.364Z,50.90
2019-02-25T00:53:06.303Z,52.00
2019-02-25T00:55:34.208Z,52.60
2019-02-25T00:58:02.410Z,52.30
2019-02-25T01:00:30.484Z,51.80
2019-02-25T01:02:58.970Z,51.40
2019-02-25T01:05:26.937Z,51.30
2019-02-25T01:07:54.889Z,51.30
2019-02-25T01:10:23.125Z,51.50
2019-02-25T01:12:51.121Z,51.80
2019-02-25T01:15:19.063Z,51.80
2019-02-25T01:18:00.779Z,51.70
2019-02-25T01:20:48.247Z,52.70
2019-02-25T01:23:16.259Z,52.30
2019-02-25T01:26:03.664Z,52.40
2019-02-25T01:28:31.662Z,52.90
2019-02-25T01:31:19.207Z,52.60
2019-02-25T01:34:01.600Z,53.70
2019-02-25T01:36:49.326Z,53.50
2019-02-25T01:39:30.013Z,52.60
2019-02-25T01:42:17.618Z,52.70
2019-02-25T01:44:59.606Z,52.20
2019-02-25T01:47:47.165Z,52.70
2019-02-25T01:50:29.544Z,52.10
2019-02-25T01:52:58.441Z,51.90
2019-02-25T01:55:26.683Z,51.40
2019-02-25T01:58:14.223Z,51.60
2019-02-25T02:00:42.341Z,51.20
2019-02-25T02:03:10.264Z,50.20
2019-02-25T02:05:38.253Z,51.10
2019-02-25T02:08:06.203Z,50.70
2019-02-25T02:10:53.796Z,51.10
2019-02-25T02:13:35.056Z,51.20
2019-02-25T02:16:02.984Z,51.50
2019-02-25T02:18:43.854Z,51.90
2019-02-25T02:21:31.210Z,52.10
2019-02-25T02:24:12.602Z,52.10
2019-02-25T02:27:00.389Z,51.90
2019-02-25T02:29:41.127Z,52.30
2019-02-25T02:32:28.947Z,52.80
2019-02-25T02:35:10.502Z,53.50
2019-02-25T02:37:58.158Z,53.30
2019-02-25T02:40:39.584Z,53.40
2019-02-25T02:43:26.972Z,53.60
2019-02-25T02:46:27.367Z,53.50
2019-02-25T02:49:08.838Z,53.30
2019-02-25T02:51:36.937Z,54.10
2019-02-25T02:54:04.929Z,54.20
2019-02-25T02:56:34.240Z,54.40
2019-02-25T02:59:16.373Z,54.40
2019-02-25T03:02:03.921Z,54.60
2019-02-25T03:04:31.910Z,54.50
2019-02-25T03:06:59.857Z,56.00
2019-02-25T03:09:27.931Z,56.00
2019-02-25T03:11:55.960Z,56.00
2019-02-25T03:14:23.974Z,56.80
2019-02-25T03:16:52.207Z,56.50
2019-02-25T03:19:20.388Z,56.80
2019-02-25T03:21:48.429Z,57.70
2019-02-25T03:24:17.422Z,57.20
2019-02-25T03:26:58.922Z,56.80
2019-02-25T03:29:26.868Z,57.80
2019-02-25T03:32:14.340Z,56.50
2019-02-25T03:34:56.069Z,57.00
2019-02-25T03:37:43.512Z,56.10
2019-02-25T03:40:25.259Z,55.80
2019-02-25T03:43:12.646Z,54.30
2019-02-25T03:45:53.376Z,55.10
2019-02-25T03:48:40.728Z,56.70
2019-02-25T03:51:08.691Z,57.60
2019-02-25T03:53:36.568Z,59.80
2019-02-25T03:56:04.589Z,59.50
2019-02-25T03:58:32.602Z,58.90
2019-02-25T04:01:00.581Z,59.80
2019-02-25T04:03:28.596Z,59.80
2019-02-25T04:05:56.807Z,60.90
2019-02-25T04:08:45.858Z,60.60
2019-02-25T04:11:28.383Z,61.50
2019-02-25T04:13:56.342Z,62.10
2019-02-25T04:16:25.038Z,62.00
2019-02-25T04:18:52.955Z,61.70
2019-02-25T04:21:21.010Z,61.70
2019-02-25T04:23:49.193Z,61.70
2019-02-25T04:26:17.233Z,61.60
2019-02-25T04:28:45.210Z,61.90
2019-02-25T04:31:33.507Z,62.00
2019-02-25T04:34:18.877Z,61.40
2019-02-25T04:37:06.468Z,62.10
2019-02-25T04:39:48.853Z,62.00
2019-02-25T04:42:31.156Z,63.70
2019-02-25T04:45:13.002Z,63.30
2019-02-25T04:48:00.643Z,63.00
2019-02-25T04:50:42.445Z,62.90
2019-02-25T04:53:10.510Z,62.60
2019-02-25T04:55:38.505Z,63.60
2019-02-25T04:58:06.530Z,63.30
2019-02-25T05:00:34.517Z,63.00
2019-02-25T05:03:21.946Z,62.70
2019-02-25T05:06:04.041Z,63.40
2019-02-25T05:08:51.391Z,62.50
2019-02-25T05:14:02.528Z,62.10
2019-02-25T05:16:49.972Z,63.50
2019-02-25T05:19:30.850Z,64.40
2019-02-25T05:22:11.994Z,65.80
2019-02-25T05:24:59.919Z,65.70
2019-02-25T05:27:40.160Z,67.20
2019-02-25T05:30:27.840Z,67.30
2019-02-25T05:33:08.411Z,67.40
2019-02-25T05:35:52.146Z,68.00
2019-02-25T05:38:39.770Z,67.60
2019-02-25T05:41:07.746Z,67.00
2019-02-25T05:43:35.750Z,67.00
2019-02-25T05:46:04.799Z,67.50
2019-02-25T05:48:52.501Z,66.80
2019-02-25T05:51:20.427Z,66.10
2019-02-25T05:53:48.374Z,66.70
2019-02-25T05:56:30.661Z,66.20
2019-02-25T05:59:19.129Z,66.10
2019-02-25T06:01:59.589Z,65.00
2019-02-25T06:04:30.309Z,65.90
2019-02-25T06:06:58.387Z,65.60
2019-02-25T06:09:26.290Z,65.60
2019-02-25T06:12:13.697Z,65.90
2019-02-25T06:14:41.747Z,66.30
2019-02-25T06:17:11.497Z,65.90
2019-02-25T06:19:39.671Z,65.70
2019-02-25T06:22:22.762Z,65.10
2019-02-25T06:25:03.694Z,65.50
2019-02-25T06:27:44.342Z,64.90
2019-02-25T06:30:31.979Z,65.10
2019-02-25T06:33:14.895Z,64.40
2019-02-25T06:35:42.863Z,64.60
2019-02-25T06:38:25.097Z,65.10
2019-02-25T06:41:08.648Z,65.80
2019-02-25T06:43:56.210Z,66.10
2019-02-25T06:46:37.177Z,64.60
2019-02-25T06:49:24.607Z,64.10
2019-02-25T06:51:52.519Z,63.60
2019-02-25T06:54:20.491Z,64.60
2019-02-25T06:56:48.536Z,64.70
2019-02-25T06:59:16.611Z,64.90
2019-02-25T07:01:44.574Z,65.10
2019-02-25T07:04:34.812Z,65.10
2019-02-25T07:07:18.998Z,65.20
2019-02-25T07:10:26.288Z,64.70
2019-02-25T07:13:14.012Z,63.60
2019-02-25T07:16:21.188Z,62.90
2019-02-25T07:22:08.347Z,61.30
2019-02-25T07:24:56.781Z,60.90
2019-02-25T07:27:44.503Z,60.70
2019-02-25T07:30:32.006Z,60.00
2019-02-25T07:33:36.288Z,59.10
2019-02-25T07:36:23.853Z,59.30
2019-02-25T07:39:11.573Z,57.50
2019-02-25T07:42:15.751Z,56.60
2019-02-25T07:45:27.077Z,55.70
2019-02-25T07:48:31.148Z,54.60
2019-02-25T07:51:34.180Z,54.40
2019-02-25T07:54:21.863Z,54.10
2019-02-25T07:56:57.609Z,52.80
2019-02-25T08:00:05.426Z,51.90
2019-02-25T08:02:54.257Z,50.80
2019-02-25T08:05:41.862Z,50.10
2019-02-25T08:08:15.910Z,48.50
2019-02-25T08:11:23.809Z,47.30
2019-02-25T08:14:13.948Z,46.90
2019-02-25T08:17:21.232Z,45.70
2019-02-25T08:20:23.125Z,44.90
2019-02-25T08:23:10.844Z,45.40
2019-02-25T08:25:58.546Z,43.90
2019-02-25T08:28:46.017Z,44.00
2019-02-25T08:31:50.521Z,43.80
2019-02-25T08:34:54.018Z,43.80
2019-02-25T08:41:19.304Z,42.60
2019-02-25T08:44:29.444Z,41.00
2019-02-25T08:47:15.177Z,40.60
2019-02-25T08:49:46.245Z,41.10
2019-02-25T08:52:14.265Z,39.90
2019-02-25T08:55:02.629Z,39.30
2019-02-25T09:00:37.415Z,37.90
2019-02-25T09:03:24.889Z,36.80
2019-02-25T09:05:53.040Z,36.80
2019-02-25T09:08:33.919Z,36.60
2019-02-25T09:11:21.577Z,35.70
2019-02-25T09:14:02.388Z,35.40
2019-02-25T09:16:30.315Z,35.30
2019-02-25T09:18:58.316Z,35.70
2019-02-25T09:21:45.741Z,35.10
2019-02-25T09:24:25.921Z,34.00
2019-02-25T09:27:13.860Z,32.30
2019-02-25T09:29:41.767Z,31.90
2019-02-25T09:32:09.807Z,31.50
2019-02-25T09:34:38.136Z,32.10
2019-02-25T09:37:18.422Z,31.30
2019-02-25T09:39:59.470Z,30.00
2019-02-25T09:42:47.140Z,30.60
2019-02-25T09:45:34.275Z,29.90
2019-02-25T09:48:14.611Z,29.80
2019-02-25T09:51:02.224Z,28.80
2019-02-25T09:53:31.027Z,28.50
2019-02-25T09:56:18.470Z,27.50
2019-02-25T09:59:00.372Z,27.40
2019-02-25T10:01:47.782Z,27.20
2019-02-25T10:04:31.819Z,26.80
2019-02-25T10:07:20.059Z,25.00
2019-02-25T10:10:00.595Z,25.60
2019-02-25T10:12:48.330Z,25.60
2019-02-25T10:15:16.325Z,25.30
2019-02-25T10:17:44.564Z,25.00
2019-02-25T10:20:12.503Z,24.00
2019-02-25T10:22:40.516Z,23.80
2019-02-25T10:25:08.700Z,23.00
2019-02-25T10:27:36.655Z,23.30
2019-02-25T10:30:06.424Z,22.50
2019-02-25T10:32:48.300Z,23.70
2019-02-25T10:35:17.734Z,23.70
2019-02-25T10:37:45.822Z,22.70
2019-02-25T10:40:15.541Z,22.90
2019-02-25T10:43:03.064Z,22.20
2019-02-25T10:45:31.030Z,22.30
2019-02-25T10:48:12.871Z,22.80
2019-02-25T10:51:00.498Z,22.90
2019-02-25T10:53:43.025Z,22.80
2019-02-25T10:56:35.869Z,22.90
2019-02-25T10:59:20.723Z,23.20
2019-02-25T11:02:10.664Z,23.10
2019-02-25T11:05:11.831Z,22.30
2019-02-25T11:11:03.893Z,21.10
2019-02-25T11:13:45.079Z,19.60
2019-02-25T11:16:32.823Z,18.30
2019-02-25T11:19:16.242Z,18.00
2019-02-25T11:22:05.554Z,17.60
2019-02-25T11:24:53.428Z,16.50
2019-02-25T11:27:42.880Z,16.80
2019-02-25T11:30:12.135Z,16.60
2019-02-25T11:33:00.881Z,16.20
2019-02-25T11:35:48.741Z,16.70
2019-02-25T11:38:17.020Z,17.60
2019-02-25T11:41:07.086Z,17.60
2019-02-25T11:43:35.893Z,17.90
2019-02-25T11:46:23.318Z,18.30
2019-02-25T11:49:05.245Z,18.80
2019-02-25T11:51:52.828Z,19.10
2019-02-25T11:54:34.124Z,18.90
2019-02-25T11:57:21.563Z,18.70
2019-02-25T12:00:02.088Z,17.30
2019-02-25T12:05:39.553Z,17.20
2019-02-25T12:08:21.726Z,17.30
2019-02-25T12:11:10.086Z,16.40
2019-02-25T12:13:38.911Z,16.40
2019-02-25T12:16:06.993Z,16.40
2019-02-25T12:21:28.522Z,16.90
2019-02-25T12:23:56.728Z,17.20
2019-02-25T12:26:24.741Z,17.30
2019-02-25T12:28:52.877Z,18.00
2019-02-25T12:31:21.298Z,18.10
2019-02-25T12:33:49.472Z,18.10
2019-02-25T12:36:17.439Z,17.80
2019-02-25T12:38:46.276Z,17.40
2019-02-25T12:41:14.285Z,17.30
2019-02-25T12:43:42.404Z,17.10
2019-02-25T12:46:10.459Z,17.60
2019-02-25T12:48:58.357Z,17.90
2019-02-25T12:51:29.054Z,17.90
2019-02-25T12:54:17.128Z,18.70
2019-02-25T12:56:57.761Z,18.90
2019-02-25T12:59:26.063Z,18.30
2019-02-25T13:01:54.133Z,18.10
2019-02-25T13:04:22.310Z,18.30
2019-02-25T13:07:04.615Z,18.10
2019-02-25T13:09:52.319Z,17.70
2019-02-25T13:12:33.033Z,17.80
2019-02-25T13:17:57.650Z,17.50
2019-02-25T13:20:26.004Z,17.70
2019-02-25T13:23:07.876Z,17.60
2019-02-25T13:25:36.002Z,17.80
2019-02-25T13:28:04.415Z,17.30
2019-02-25T13:30:34.583Z,17.30
2019-02-25T13:33:02.672Z,16.80
2019-02-25T13:35:50.521Z,16.70
2019-02-25T13:38:18.699Z,16.40
2019-02-25T13:40:47.194Z,16.40
2019-02-25T13:43:15.481Z,16.50
2019-02-25T13:45:44.137Z,16.50
2019-02-25T13:48:12.462Z,16.50
2019-02-25T13:50:41.200Z,16.50
2019-02-25T13:53:09.567Z,16.30
2019-02-25T13:56:06.249Z,16.20
2019-02-25T13:58:34.572Z,16.20
2019-02-25T14:01:17.032Z,16.60
2019-02-25T14:04:05.033Z,17.30
2019-02-25T14:06:34.062Z,16.70
2019-02-25T14:09:07.240Z,16.80
2019-02-25T14:11:52.263Z,16.30
2019-02-25T14:14:20.564Z,16.40
2019-02-25T14:16:48.847Z,16.50
2019-02-25T14:19:17.319Z,16.30
2019-02-25T14:21:45.409Z,16.40
2019-02-25T14:24:13.482Z,16.40
2019-02-25T14:26:56.503Z,16.20
2019-02-25T14:29:26.404Z,16.00
2019-02-25T14:31:54.966Z,16.10
2019-02-25T14:34:23.136Z,16.50
2019-02-25T14:36:52.501Z,16.20
2019-02-25T14:39:36.005Z,16.00
2019-02-25T14:42:25.999Z,16.00
2019-02-25T14:45:29.004Z,16.20
2019-02-25T14:48:20.450Z,16.10
2019-02-25T14:51:26.328Z,16.00
2019-02-25T14:54:08.663Z,16.10
2019-02-25T14:56:36.732Z,15.90
2019-02-25T14:59:07.622Z,15.80
2019-02-25T15:01:54.376Z,16.70
2019-02-25T15:04:37.421Z,16.20
2019-02-25T15:07:26.017Z,16.40
2019-02-25T15:10:08.469Z,16.50
2019-02-25T15:12:58.972Z,16.40
2019-02-25T15:15:43.356Z,16.80
2019-02-25T15:18:31.341Z,16.70
2019-02-25T15:21:20.622Z,16.60
2019-02-25T15:23:48.935Z,16.50
2019-02-25T15:26:42.906Z,16.50
2019-02-25T15:29:19.127Z,16.50
2019-02-25T15:31:48.540Z,16.40
2019-02-25T15:34:50.773Z,16.40
2019-02-25T15:37:40.607Z,15.80
2019-02-25T15:40:23.233Z,14.80
2019-02-25T15:43:13.343Z,14.20
2019-02-25T15:46:16.552Z,13.50
2019-02-25T15:48:44.536Z,12.70
2019-02-25T15:51:25.367Z,12.90
2019-02-25T15:54:12.946Z,12.70
2019-02-25T15:56:54.114Z,12.70
2019-02-25T15:59:31.776Z,12.50
2019-02-25T16:02:26.146Z,12.40
2019-02-25T16:05:13.998Z,12.30
2019-02-25T16:08:00.643Z,12.50
2019-02-25T16:10:49.470Z,12.50
2019-02-25T16:13:37.811Z,13.40
2019-02-25T16:16:25.426Z,13.20
2019-02-25T16:19:16.970Z,13.70
2019-02-25T16:21:58.506Z,13.50
2019-02-25T16:24:46.756Z,13.80
2019-02-25T16:27:16.461Z,14.60
2019-02-25T16:29:51.822Z,15.10
2019-02-25T16:32:21.435Z,15.80
2019-02-25T16:34:50.532Z,17.20
2019-02-25T16:37:33.463Z,17.80
2019-02-25T16:40:24.426Z,18.50
2019-02-25T16:43:07.742Z,18.80
2019-02-25T16:45:55.533Z,19.20
2019-02-25T16:48:35.962Z,19.80
2019-02-25T16:51:24.254Z,20.60
2019-02-25T16:53:53.738Z,20.00
2019-02-25T16:56:34.394Z,21.00
2019-02-25T16:59:18.505Z,21.40
2019-02-25T17:02:01.964Z,21.80
2019-02-25T17:04:31.806Z,22.00
2019-02-25T17:07:00.292Z,22.60
2019-02-25T17:09:29.429Z,22.80
2019-02-25T17:11:58.138Z,23.00
2019-02-25T17:15:10.203Z,23.20
2019-02-25T17:17:45.166Z,23.10
2019-02-25T17:20:32.639Z,23.20
2019-02-25T17:23:14.152Z,23.40
2019-02-25T17:25:43.510Z,23.70
2019-02-25T17:28:48.817Z,24.40
2019-02-25T17:31:32.348Z,24.60
2019-02-25T17:34:01.057Z,23.90
2019-02-25T17:36:50.041Z,24.30
2019-02-25T17:39:39.778Z,24.60
2019-02-25T17:42:28.958Z,24.80
2019-02-25T17:45:18.722Z,25.00
2019-02-25T17:48:08.377Z,25.10
2019-02-25T17:51:11.102Z,25.50
2019-02-25T17:53:58.738Z,25.30
2019-02-25T17:56:40.861Z,25.60
2019-02-25T17:59:31.613Z,26.40
2019-02-25T18:02:12.826Z,26.90
2019-02-25T18:05:00.453Z,25.90
2019-02-25T18:07:50.352Z,27.00
2019-02-25T18:10:37.815Z,27.80
2019-02-25T18:13:18.207Z,27.80
2019-02-25T18:16:08.134Z,27.60
2019-02-25T18:18:56.895Z,28.10
2019-02-25T18:21:48.070Z,28.70
2019-02-25T18:24:16.318Z,28.40
2019-02-25T18:27:06.923Z,27.80
2019-02-25T18:29:35.667Z,27.60
2019-02-25T18:32:05.796Z,28.90
2019-02-25T18:34:34.872Z,29.20
2019-02-25T18:37:04.282Z,31.00
2019-02-25T18:39:47.936Z,30.80
2019-02-25T18:43:00.505Z,31.00
2019-02-25T18:45:50.933Z,31.00
2019-02-25T18:48:40.718Z,29.60
2019-02-25T18:51:24.183Z,29.60
2019-02-25T18:54:11.527Z,28.90
2019-02-25T18:56:56.999Z,29.10
2019-02-25T18:59:45.261Z,31.10
2019-02-25T19:02:33.414Z,29.90
2019-02-25T19:05:15.580Z,29.40
2019-02-25T19:08:03.851Z,29.20
2019-02-25T19:10:46.131Z,30.10
2019-02-25T19:13:15.908Z,30.70
2019-02-25T19:16:02.190Z,30.10
2019-02-25T19:18:52.906Z,32.90
2019-02-25T19:21:21.154Z,30.70
2019-02-25T19:24:09.940Z,31.30
2019-02-25T19:27:06.598Z,31.90
2019-02-25T19:29:58.696Z,33.50
2019-02-25T19:33:10.627Z,33.20
2019-02-25T19:35:30.995Z,33.60
2019-02-25T19:38:19.872Z,32.70
2019-02-25T19:41:11.052Z,32.70
2019-02-25T19:43:59.475Z,32.70
2019-02-25T19:46:48.665Z,32.60
2019-02-25T19:49:51.260Z,31.30
2019-02-25T19:52:41.842Z,32.00
2019-02-25T19:55:46.137Z,33.70
2019-02-25T19:58:35.891Z,33.40
2019-02-25T20:01:29.350Z,34.80
2019-02-25T20:03:59.595Z,34.60
2019-02-25T20:06:29.219Z,34.30
2019-02-25T20:09:21.358Z,34.20
2019-02-25T20:12:04.718Z,33.50
2019-02-25T20:14:52.736Z,33.50
2019-02-25T20:17:21.924Z,34.30
2019-02-25T20:19:51.398Z,34.60
2019-02-25T20:22:34.476Z,34.90
2019-02-25T20:25:24.523Z,35.40
2019-02-25T20:28:26.828Z,35.70
2019-02-25T20:30:55.207Z,35.60
2019-02-25T20:33:39.081Z,36.50
2019-02-25T20:36:28.427Z,35.60
2019-02-25T20:39:29.109Z,36.70
2019-02-25T20:42:20.924Z,36.70
2019-02-25T20:45:08.776Z,37.30
2019-02-25T20:47:59.463Z,36.60
2019-02-25T20:50:41.399Z,38.00
2019-02-25T20:53:31.681Z,38.10
2019-02-25T20:56:12.405Z,39.10
2019-02-25T20:59:01.086Z,38.70
2019-02-25T21:02:07.181Z,38.60
2019-02-25T21:04:36.515Z,39.00
2019-02-25T21:07:38.710Z,39.40
2019-02-25T21:10:27.872Z,39.20
2019-02-25T21:13:33.580Z,39.70
2019-02-25T21:16:04.832Z,40.20
2019-02-25T21:18:46.579Z,40.60
2019-02-25T21:21:16.202Z,40.70
2019-02-25T21:23:44.565Z,41.30
2019-02-25T21:26:33.980Z,41.50
2019-02-25T21:29:38.829Z,41.90
2019-02-25T21:32:28.477Z,41.90
2019-02-25T21:35:09.716Z,42.10
2019-02-25T21:37:57.268Z,43.00
2019-02-25T21:40:39.504Z,41.90
2019-02-25T21:43:29.544Z,42.10
2019-02-25T21:46:10.299Z,42.00
2019-02-25T21:48:38.489Z,42.70
2019-02-25T21:51:22.837Z,42.90
2019-02-25T21:54:10.595Z,43.00
2019-02-25T21:56:38.873Z,43.30
2019-02-25T21:59:08.352Z,43.40
2019-02-25T22:01:57.797Z,44.10
2019-02-25T22:04:48.066Z,45.20
2019-02-25T22:07:31.536Z,45.60
2019-02-25T22:10:00.565Z,45.90
2019-02-25T22:12:30.977Z,45.30
2019-02-25T22:15:07.515Z,46.00
2019-02-25T22:17:37.963Z,46.40
2019-02-25T22:20:12.182Z,45.80
2019-02-25T22:22:47.182Z,45.70
2019-02-25T22:25:15.788Z,45.80
2019-02-25T22:27:45.648Z,46.20
2019-02-25T22:30:14.689Z,47.00
2019-02-25T22:32:43.244Z,48.30
2019-02-25T22:35:12.845Z,48.60
2019-02-25T22:38:02.833Z,49.90
2019-02-25T22:40:33.968Z,50.20
2019-02-25T22:43:21.521Z,49.90
2019-02-25T22:46:07.640Z,50.20
2019-02-25T22:48:58.777Z,49.70
2019-02-25T22:51:35.364Z,50.10
2019-02-25T22:54:06.197Z,50.50
2019-02-25T22:57:10.120Z,50.50
2019-02-25T22:59:57.696Z,49.50
2019-02-25T23:02:28.077Z,49.20
2019-02-25T23:04:56.303Z,49.20
2019-02-25T23:07:41.384Z,49.40
2019-02-25T23:10:28.590Z,49.90
2019-02-25T23:13:09.491Z,50.00
2019-02-25T23:15:57.267Z,50.20
2019-02-25T23:18:38.985Z,50.60
2019-02-25T23:21:28.801Z,50.90
2019-02-25T23:24:30.458Z,51.50
2019-02-25T23:27:18.082Z,51.60
2019-02-25T23:29:48.301Z,51.90
2019-02-25T23:32:38.779Z,52.20
2019-02-25T23:35:42.726Z,52.40
2019-02-25T23:38:29.927Z,53.40
2019-02-25T23:41:05.418Z,53.20
2019-02-25T23:43:59.643Z,53.10
2019-02-25T23:46:40.161Z,53.30
2019-02-25T23:49:27.274Z,54.00
2019-02-25T23:52:10.312Z,53.70
2019-02-25T23:54:51.970Z,53.50
2019-02-25T23:57:21.705Z,53.60
